createdAt,value
2018-03-01T00:00:11.074Z,-3.30
2018-03-01T00:02:39.465Z,-3.50
2018-03-01T00:05:07.878Z,-3.30
2018-03-01T00:07:36.134Z,-3.40
2018-03-01T00:10:04.437Z,-3.40
2018-03-01T00:12:32.755Z,-3.40
2018-03-01T00:15:00.978Z,-3.10
2018-03-01T00:17:29.254Z,-3.10
2018-03-01T00:19:57.510Z,-3.10
2018-03-01T00:22:38.554Z,-3.40
2018-03-01T00:25:06.814Z,-3.40
2018-03-01T00:27:35.096Z,-3.10
2018-03-01T00:30:04.370Z,-3.30
2018-03-01T00:32:32.636Z,-3.30
2018-03-01T00:35:01.401Z,-3.20
2018-03-01T00:37:29.686Z,-3.20
2018-03-01T00:39:58.058Z,-3.40
2018-03-01T00:42:26.573Z,-3.30
2018-03-01T00:44:54.859Z,-3.40
2018-03-01T00:47:23.158Z,-3.30
2018-03-01T00:49:51.544Z,-3.30
2018-03-01T00:52:20.549Z,-3.50
2018-03-01T00:54:48.850Z,-3.70
2018-03-01T00:57:17.194Z,-3.50
2018-03-01T00:59:46.383Z,-3.40
2018-03-01T01:02:14.630Z,-3.50
2018-03-01T01:04:42.936Z,-3.50
2018-03-01T01:07:11.213Z,-3.40
2018-03-01T01:09:39.854Z,-3.50
2018-03-01T01:12:08.095Z,-3.60
2018-03-01T01:14:37.205Z,-3.30
2018-03-01T01:17:06.418Z,-3.40
2018-03-01T01:19:34.759Z,-3.40
2018-03-01T01:22:03.338Z,-3.30
2018-03-01T01:24:31.724Z,-3.40
2018-03-01T01:27:00.007Z,-3.60
2018-03-01T01:29:29.075Z,-3.30
2018-03-01T01:31:57.384Z,-3.60
2018-03-01T01:34:26.483Z,-3.40
2018-03-01T01:36:54.778Z,-3.40
2018-03-01T01:39:23.053Z,-3.30
2018-03-01T01:41:51.314Z,-3.30
2018-03-01T01:44:19.649Z,-3.60
2018-03-01T01:46:47.895Z,-3.70
2018-03-01T01:49:16.143Z,-3.30
2018-03-01T01:51:44.393Z,-3.50
2018-03-01T01:54:12.677Z,-3.40
2018-03-01T01:56:41.046Z,-3.50
2018-03-01T01:59:10.152Z,-3.60
2018-03-01T02:01:38.408Z,-3.50
2018-03-01T02:04:07.106Z,-3.60
2018-03-01T02:06:35.525Z,-3.30
2018-03-01T02:09:05.509Z,-3.20
2018-03-01T02:11:33.772Z,-3.40
2018-03-01T02:14:02.049Z,-3.50
2018-03-01T02:16:30.299Z,-3.50
2018-03-01T02:18:58.566Z,-3.30
2018-03-01T02:21:26.915Z,-3.60
2018-03-01T02:23:55.454Z,-3.50
2018-03-01T02:26:23.696Z,-3.70
2018-03-01T02:28:52.029Z,-3.30
2018-03-01T02:31:21.115Z,-3.30
2018-03-01T02:33:50.254Z,-3.50
2018-03-01T02:36:30.528Z,-3.60
2018-03-01T02:38:59.689Z,-3.60
2018-03-01T02:41:27.981Z,-3.80
2018-03-01T02:43:56.277Z,-3.50
2018-03-01T02:46:24.525Z,-3.70
2018-03-01T02:48:52.871Z,-3.60
2018-03-01T02:51:21.158Z,-3.50
2018-03-01T02:53:49.525Z,-3.70
2018-03-01T02:56:18.534Z,-3.50
2018-03-01T02:58:46.872Z,-3.60
2018-03-01T03:01:15.221Z,-3.50
2018-03-01T03:03:43.460Z,-3.70
2018-03-01T03:06:12.479Z,-3.90
2018-03-01T03:08:40.850Z,-3.90
2018-03-01T03:11:09.094Z,-3.40
2018-03-01T03:13:38.197Z,-3.60
2018-03-01T03:16:07.338Z,-3.60
2018-03-01T03:18:35.605Z,-3.70
2018-03-01T03:21:03.847Z,-3.70
2018-03-01T03:23:32.905Z,-3.50
2018-03-01T03:26:01.239Z,-3.90
2018-03-01T03:28:29.461Z,-3.60
2018-03-01T03:30:58.511Z,-3.40
2018-03-01T03:33:26.871Z,-3.60
2018-03-01T03:35:55.378Z,-3.60
2018-03-01T03:38:23.650Z,-3.30
2018-03-01T03:40:51.923Z,-3.70
2018-03-01T03:43:20.164Z,-3.70
2018-03-01T03:45:48.546Z,-3.50
2018-03-01T03:48:16.786Z,-3.40
2018-03-01T03:50:45.069Z,-3.50
2018-03-01T03:53:13.329Z,-3.50
2018-03-01T03:55:41.578Z,-3.30
2018-03-01T03:58:09.826Z,-3.40
2018-03-01T04:00:38.970Z,-3.70
2018-03-01T04:03:07.247Z,-3.50
2018-03-01T04:05:35.512Z,-3.30
2018-03-01T04:08:03.748Z,-3.30
2018-03-01T04:10:33.149Z,-3.40
2018-03-01T04:13:01.365Z,-3.40
2018-03-01T04:15:29.637Z,-3.50
2018-03-01T04:17:57.886Z,-3.20
2018-03-01T04:20:27.009Z,-3.30
2018-03-01T04:22:55.313Z,-3.30
2018-03-01T04:25:23.549Z,-3.40
2018-03-01T04:27:51.798Z,-3.10
2018-03-01T04:30:20.129Z,-3.20
2018-03-01T04:32:48.438Z,-3.40
2018-03-01T04:35:16.679Z,-3.30
2018-03-01T04:37:44.934Z,-3.30
2018-03-01T04:40:13.973Z,-3.10
2018-03-01T04:42:42.326Z,-3.10
2018-03-01T04:45:11.051Z,-3.20
2018-03-01T04:47:39.365Z,-3.20
2018-03-01T04:50:07.757Z,-3.10
2018-03-01T04:52:36.001Z,-3.10
2018-03-01T04:55:04.302Z,-3.30
2018-03-01T04:57:32.580Z,-3.40
2018-03-01T05:00:00.837Z,-3.60
2018-03-01T05:02:29.964Z,-3.10
2018-03-01T05:04:58.200Z,-3.30
2018-03-01T05:07:26.487Z,-3.40
2018-03-01T05:09:54.748Z,-3.30
2018-03-01T05:12:23.782Z,-3.50
2018-03-01T05:14:52.061Z,-3.50
2018-03-01T05:17:20.337Z,-3.50
2018-03-01T05:19:48.638Z,-3.70
2018-03-01T05:22:17.718Z,-3.60
2018-03-01T05:24:45.953Z,-3.50
2018-03-01T05:27:15.069Z,-3.40
2018-03-01T05:29:43.330Z,-3.60
2018-03-01T05:32:12.514Z,-3.40
2018-03-01T05:34:41.685Z,-3.40
2018-03-01T05:37:09.997Z,-3.60
2018-03-01T05:39:39.020Z,-3.30
2018-03-01T05:42:11.692Z,-3.70
2018-03-01T05:44:40.770Z,-3.40
2018-03-01T05:47:09.880Z,-3.60
2018-03-01T05:49:38.893Z,-3.30
2018-03-01T05:52:07.902Z,-3.30
2018-03-01T05:54:36.195Z,-3.30
2018-03-01T05:57:04.502Z,-3.20
2018-03-01T05:59:32.733Z,-3.30
2018-03-01T06:02:00.995Z,-3.30
2018-03-01T06:04:30.886Z,-3.30
2018-03-01T06:06:59.233Z,-3.40
2018-03-01T06:09:27.456Z,-3.30
2018-03-01T06:11:55.721Z,-3.20
2018-03-01T06:14:24.226Z,-3.10
2018-03-01T06:16:52.545Z,-3.10
2018-03-01T06:19:20.770Z,-3.20
2018-03-01T06:21:50.679Z,-3.40
2018-03-01T06:24:18.957Z,-3.40
2018-03-01T06:26:47.214Z,-3.20
2018-03-01T06:29:15.509Z,-3.00
2018-03-01T06:31:43.989Z,-3.00
2018-03-01T06:34:12.957Z,-3.10
2018-03-01T06:36:41.333Z,-3.60
2018-03-01T06:39:10.358Z,-3.30
2018-03-01T06:41:38.655Z,-3.50
2018-03-01T06:44:07.080Z,-3.50
2018-03-01T06:46:35.342Z,-3.30
2018-03-01T06:49:07.433Z,-3.60
2018-03-01T06:51:35.663Z,-3.30
2018-03-01T06:54:03.918Z,-3.30
2018-03-01T06:56:32.224Z,-3.30
2018-03-01T06:59:00.538Z,-3.70
2018-03-01T07:01:28.849Z,-3.50
2018-03-01T07:03:57.177Z,-3.30
2018-03-01T07:06:25.595Z,-3.60
2018-03-01T07:08:53.924Z,-3.30
2018-03-01T07:11:22.170Z,-3.30
2018-03-01T07:13:50.411Z,-3.20
2018-03-01T07:16:18.676Z,-3.40
2018-03-01T07:18:47.957Z,-3.10
2018-03-01T07:21:16.216Z,-3.20
2018-03-01T07:23:44.764Z,-3.40
2018-03-01T07:26:13.010Z,-3.10
2018-03-01T07:28:41.280Z,-3.10
2018-03-01T07:31:10.389Z,-3.00
2018-03-01T07:33:39.514Z,-3.00
2018-03-01T08:58:05.653Z,-3.10
2018-03-01T09:00:34.875Z,-4.10
2018-03-01T09:03:03.125Z,-3.50
2018-03-01T09:05:31.481Z,-3.20
2018-03-01T09:07:59.822Z,-2.80
2018-03-01T09:10:28.097Z,-2.60
2018-03-01T09:12:56.511Z,-2.30
2018-03-01T09:15:24.737Z,-2.30
2018-03-01T09:17:52.980Z,-1.80
2018-03-01T09:20:21.299Z,-1.70
2018-03-01T09:22:49.656Z,-1.90
2018-03-01T09:25:17.998Z,-1.70
2018-03-01T09:27:47.144Z,-1.60
2018-03-01T09:30:15.382Z,-1.40
2018-03-01T09:32:43.654Z,-1.30
2018-03-01T09:35:13.674Z,-1.30
2018-03-01T09:37:42.039Z,-1.40
2018-03-01T09:40:11.031Z,-1.10
2018-03-01T09:42:40.237Z,-1.20
2018-03-01T09:45:09.394Z,-1.10
2018-03-01T09:47:37.705Z,-1.10
2018-03-01T09:50:05.957Z,-0.90
2018-03-01T09:52:34.209Z,-1.10
2018-03-01T09:55:02.465Z,-1.10
2018-03-01T09:57:30.850Z,-1.10
2018-03-01T09:59:59.398Z,-1.00
2018-03-01T10:02:27.614Z,-0.90
2018-03-01T10:04:55.867Z,-0.90
2018-03-01T10:07:24.146Z,-0.40
2018-03-01T10:09:53.236Z,-0.60
2018-03-01T10:12:22.328Z,-0.40
2018-03-01T10:14:51.412Z,-0.20
2018-03-01T10:17:20.555Z,-0.50
2018-03-01T10:19:48.799Z,-0.40
2018-03-01T10:22:17.318Z,-0.30
2018-03-01T10:24:46.307Z,-0.20
2018-03-01T10:27:14.575Z,0.00
2018-03-01T10:29:47.001Z,-0.20
2018-03-01T10:32:15.277Z,0.00
2018-03-01T10:34:45.892Z,0.10
2018-03-01T10:37:15.025Z,0.20
2018-03-01T10:39:43.420Z,0.30
2018-03-01T10:42:11.681Z,0.30
2018-03-01T10:44:40.804Z,0.40
2018-03-01T10:47:09.065Z,0.20
2018-03-01T10:49:37.345Z,0.40
2018-03-01T10:52:05.610Z,0.30
2018-03-01T10:54:34.067Z,0.50
2018-03-01T10:57:02.374Z,0.60
2018-03-01T10:59:30.678Z,0.40
2018-03-01T11:02:00.678Z,0.70
2018-03-01T11:04:29.015Z,0.70
2018-03-01T11:06:57.286Z,0.70
2018-03-01T11:09:26.705Z,1.00
2018-03-01T11:11:54.960Z,0.90
2018-03-01T11:14:24.066Z,1.10
2018-03-01T11:16:52.270Z,1.20
2018-03-01T11:19:20.634Z,1.20
2018-03-01T11:21:48.869Z,1.10
2018-03-01T11:24:17.310Z,1.00
2018-03-01T11:26:45.563Z,1.10
2018-03-01T11:29:14.681Z,1.40
2018-03-01T11:31:42.978Z,1.40
2018-03-01T11:34:11.243Z,1.50
2018-03-01T11:36:39.504Z,1.40
2018-03-01T11:39:07.730Z,1.60
2018-03-01T11:41:36.267Z,1.30
2018-03-01T11:44:04.978Z,1.20
2018-03-01T11:46:33.362Z,1.50
2018-03-01T11:49:01.598Z,1.60
2018-03-01T11:51:29.866Z,1.60
2018-03-01T11:53:58.106Z,1.50
2018-03-01T11:56:26.408Z,1.60
2018-03-01T11:58:54.640Z,1.70
2018-03-01T12:01:22.898Z,1.60
2018-03-01T12:03:51.194Z,1.60
2018-03-01T12:06:20.067Z,1.70
2018-03-01T12:08:48.305Z,1.80
2018-03-01T12:11:17.315Z,1.90
2018-03-01T12:13:45.671Z,1.90
2018-03-01T12:16:14.701Z,1.60
2018-03-01T12:18:42.922Z,1.50
2018-03-01T12:21:11.174Z,1.60
2018-03-01T12:23:39.431Z,1.80
2018-03-01T12:26:08.525Z,1.70
2018-03-01T12:28:36.855Z,1.80
2018-03-01T12:31:05.090Z,1.80
2018-03-01T12:33:33.408Z,1.70
2018-03-01T12:36:01.644Z,1.80
2018-03-01T12:38:30.021Z,1.80
2018-03-01T12:40:58.348Z,2.10
2018-03-01T12:43:26.593Z,2.00
2018-03-01T12:45:54.818Z,2.00
2018-03-01T12:48:23.071Z,2.10
2018-03-01T12:50:51.321Z,1.80
2018-03-01T12:53:19.777Z,1.80
2018-03-01T12:55:48.826Z,1.70
2018-03-01T12:58:17.866Z,1.60
2018-03-01T13:00:46.138Z,1.70
2018-03-01T13:03:14.549Z,1.90
2018-03-01T13:05:42.896Z,2.00
2018-03-01T13:08:11.264Z,2.00
2018-03-01T13:10:39.532Z,2.00
2018-03-01T13:13:07.934Z,2.10
2018-03-01T13:15:36.383Z,2.20
2018-03-01T13:18:05.461Z,2.10
2018-03-01T13:20:34.494Z,2.30
2018-03-01T13:23:02.883Z,2.10
2018-03-01T13:25:31.382Z,2.40
2018-03-01T13:28:00.486Z,2.40
2018-03-01T13:30:45.163Z,2.70
2018-03-01T13:33:16.102Z,2.40
2018-03-01T13:35:44.315Z,2.50
2018-03-01T13:38:13.207Z,2.40
2018-03-01T13:40:41.553Z,2.60
2018-03-01T13:43:11.213Z,2.40
2018-03-01T13:45:50.193Z,2.40
2018-03-01T13:48:18.764Z,2.50
2018-03-01T13:50:47.107Z,2.30
2018-03-01T13:53:15.437Z,2.50
2018-03-01T13:55:43.709Z,2.30
2018-03-01T13:58:12.040Z,2.40
2018-03-01T14:00:40.290Z,2.40
2018-03-01T14:03:08.557Z,2.40
2018-03-01T14:05:36.785Z,2.60
2018-03-01T14:08:06.035Z,2.40
2018-03-01T14:10:34.411Z,2.40
2018-03-01T14:13:08.399Z,2.40
2018-03-01T14:15:37.533Z,2.60
2018-03-01T14:21:20.013Z,2.70
2018-03-01T14:23:48.256Z,2.60
2018-03-01T14:29:23.161Z,2.70
2018-03-01T14:31:52.299Z,2.50
2018-03-01T14:34:20.506Z,2.70
2018-03-01T14:36:48.896Z,2.60
2018-03-01T14:39:17.125Z,2.70
2018-03-01T14:41:45.422Z,2.80
2018-03-01T14:44:13.682Z,3.00
2018-03-01T14:46:41.947Z,3.10
2018-03-01T14:49:10.190Z,2.90
2018-03-01T14:51:39.220Z,2.70
2018-03-01T14:54:07.567Z,2.70
2018-03-01T14:56:35.856Z,2.90
2018-03-01T14:59:05.012Z,2.90
2018-03-01T15:01:34.866Z,2.90
2018-03-01T15:04:03.127Z,2.90
2018-03-01T15:06:31.509Z,3.00
2018-03-01T15:08:59.758Z,2.60
2018-03-01T15:11:28.010Z,2.60
2018-03-01T15:13:56.254Z,2.50
2018-03-01T15:16:24.538Z,2.60
2018-03-01T15:18:52.800Z,2.60
2018-03-01T15:21:21.081Z,2.40
2018-03-01T15:23:49.334Z,2.40
2018-03-01T15:26:18.437Z,2.60
2018-03-01T15:28:46.702Z,2.30
2018-03-01T15:31:15.785Z,2.40
2018-03-01T15:33:44.229Z,2.40
2018-03-01T15:36:12.763Z,2.10
2018-03-01T15:38:41.874Z,2.20
2018-03-01T15:41:10.233Z,2.10
2018-03-01T15:43:38.515Z,2.20
2018-03-01T15:46:07.590Z,2.20
2018-03-01T15:48:35.868Z,2.10
2018-03-01T15:51:04.293Z,2.20
2018-03-01T15:53:32.534Z,2.10
2018-03-01T15:56:02.703Z,2.00
2018-03-01T15:58:30.933Z,2.10
2018-03-01T16:01:00.117Z,2.10
2018-03-01T16:03:28.375Z,2.00
2018-03-01T16:05:56.717Z,2.10
2018-03-01T16:08:24.966Z,2.00
2018-03-01T16:10:53.258Z,2.00
2018-03-01T16:13:21.500Z,1.80
2018-03-01T16:15:49.901Z,2.00
2018-03-01T16:18:18.944Z,2.00
2018-03-01T16:20:47.307Z,2.10
2018-03-01T16:23:22.839Z,2.00
2018-03-01T16:25:51.086Z,2.00
2018-03-01T16:28:19.315Z,2.00
2018-03-01T16:30:48.446Z,1.90
2018-03-01T16:33:16.734Z,2.10
2018-03-01T16:35:45.000Z,2.10
2018-03-01T16:38:13.251Z,2.20
2018-03-01T16:40:42.212Z,2.00
2018-03-01T16:43:10.646Z,2.10
2018-03-01T16:45:39.290Z,2.20
2018-03-01T16:48:07.586Z,2.20
2018-03-01T16:50:35.833Z,2.30
2018-03-01T16:53:04.230Z,2.10
2018-03-01T16:55:32.579Z,2.10
2018-03-01T16:58:00.907Z,2.30
2018-03-01T17:00:29.149Z,2.20
2018-03-01T17:02:57.390Z,2.20
2018-03-01T17:05:25.736Z,2.20
2018-03-01T17:07:53.993Z,1.90
2018-03-01T17:10:22.244Z,2.00
2018-03-01T17:12:50.545Z,2.10
2018-03-01T17:15:18.794Z,1.90
2018-03-01T17:17:47.655Z,1.70
2018-03-01T17:20:16.668Z,1.60
2018-03-01T17:22:45.528Z,1.80
2018-03-01T17:25:13.784Z,1.80
2018-03-01T17:27:42.038Z,1.90
2018-03-01T17:30:10.311Z,1.80
2018-03-01T17:32:38.576Z,1.70
2018-03-01T17:35:06.805Z,1.60
2018-03-01T17:37:36.426Z,1.70
2018-03-01T17:40:05.619Z,1.70
2018-03-01T17:42:34.640Z,1.90
2018-03-01T17:45:03.000Z,1.70
2018-03-01T17:47:32.009Z,1.50
2018-03-01T17:50:00.654Z,1.60
2018-03-01T17:52:28.902Z,1.50
2018-03-01T17:54:57.173Z,1.60
2018-03-01T17:57:25.398Z,1.50
2018-03-01T17:59:54.510Z,1.60
2018-03-01T18:02:22.822Z,1.50
2018-03-01T18:04:51.131Z,1.60
2018-03-01T18:07:19.337Z,1.40
2018-03-01T18:09:47.639Z,1.40
2018-03-01T18:12:15.894Z,1.40
2018-03-01T18:14:44.173Z,1.30
2018-03-01T18:17:13.102Z,1.50
2018-03-01T18:19:42.087Z,1.40
2018-03-01T18:22:10.706Z,1.40
2018-03-01T18:24:41.109Z,1.30
2018-03-01T18:27:10.183Z,1.20
2018-03-01T18:29:38.419Z,1.20
2018-03-01T18:32:07.419Z,1.20
2018-03-01T18:34:35.688Z,1.00
2018-03-01T18:37:03.924Z,1.20
2018-03-01T18:39:32.273Z,1.20
2018-03-01T18:42:00.623Z,1.20
2018-03-01T18:44:29.725Z,1.00
2018-03-01T18:46:58.165Z,0.90
2018-03-01T18:49:26.434Z,0.90
2018-03-01T18:51:54.709Z,1.00
2018-03-01T18:54:23.109Z,0.90
2018-03-01T18:56:51.353Z,1.00
2018-03-01T18:59:19.606Z,1.00
2018-03-01T19:01:48.100Z,1.00
2018-03-01T19:04:16.397Z,1.00
2018-03-01T19:06:44.716Z,0.90
2018-03-01T19:09:13.849Z,0.80
2018-03-01T19:11:42.387Z,0.80
2018-03-01T19:14:10.693Z,0.90
2018-03-01T19:16:38.938Z,0.70
2018-03-01T19:19:08.753Z,0.40
2018-03-01T19:21:37.045Z,0.70
2018-03-01T19:24:05.393Z,0.80
2018-03-01T19:26:34.401Z,0.80
2018-03-01T19:29:02.705Z,0.60
2018-03-01T19:31:30.950Z,0.60
2018-03-01T19:33:59.208Z,0.40
2018-03-01T19:36:27.518Z,0.40
2018-03-01T19:38:55.738Z,0.60
2018-03-01T19:41:24.090Z,0.60
2018-03-01T19:43:52.498Z,0.50
2018-03-01T19:46:20.754Z,0.60
2018-03-01T19:48:49.098Z,0.70
2018-03-01T19:51:18.114Z,0.60
2018-03-01T19:53:46.410Z,0.70
2018-03-01T19:56:14.877Z,0.60
2018-03-01T19:58:43.095Z,0.60
2018-03-01T20:01:11.378Z,0.60
2018-03-01T20:03:41.124Z,0.50
2018-03-01T20:06:09.388Z,0.50
2018-03-01T20:08:37.659Z,0.40
2018-03-01T20:11:06.686Z,0.40
2018-03-01T20:13:35.029Z,0.50
2018-03-01T20:16:03.291Z,0.60
2018-03-01T20:18:31.544Z,0.60
2018-03-01T20:20:59.899Z,0.50
2018-03-01T20:23:28.387Z,0.20
2018-03-01T20:25:56.648Z,0.30
2018-03-01T20:28:24.930Z,0.30
2018-03-01T20:30:53.252Z,0.30
2018-03-01T20:33:21.491Z,0.20
2018-03-01T20:35:49.848Z,0.20
2018-03-01T20:38:18.192Z,0.40
2018-03-01T20:40:47.345Z,0.20
2018-03-01T20:43:15.659Z,0.30
2018-03-01T20:45:43.897Z,0.60
2018-03-01T20:48:12.214Z,0.60
2018-03-01T20:50:41.253Z,0.30
2018-03-01T20:53:09.680Z,0.30
2018-03-01T20:55:37.918Z,0.40
2018-03-01T20:58:06.188Z,0.00
2018-03-01T21:00:34.502Z,-0.10
2018-03-01T21:03:02.780Z,0.20
2018-03-01T21:05:31.233Z,-0.10
2018-03-01T21:07:59.575Z,0.00
2018-03-01T21:10:28.597Z,0.20
2018-03-01T21:12:56.960Z,0.40
2018-03-01T21:15:25.305Z,0.20
2018-03-01T21:17:53.577Z,0.30
2018-03-01T21:20:22.037Z,0.40
2018-03-01T21:22:50.476Z,0.10
2018-03-01T21:25:18.752Z,0.20
2018-03-01T21:27:47.104Z,0.00
2018-03-01T21:30:15.435Z,-0.10
2018-03-01T21:32:43.776Z,0.00
2018-03-01T21:35:12.022Z,0.20
2018-03-01T21:37:40.314Z,0.00
2018-03-01T21:40:08.589Z,0.10
2018-03-01T21:42:36.846Z,0.10
2018-03-01T21:45:05.105Z,-0.30
2018-03-01T21:47:33.358Z,0.10
2018-03-01T21:50:01.652Z,0.20
2018-03-01T21:52:29.901Z,-0.20
2018-03-01T21:54:58.251Z,0.00
2018-03-01T21:57:26.746Z,-0.10
2018-03-01T21:59:55.003Z,0.00
2018-03-01T22:02:24.745Z,-0.10
2018-03-01T22:04:53.080Z,-0.30
2018-03-01T22:07:22.909Z,-0.10
2018-03-01T22:09:51.222Z,-0.10
2018-03-01T22:12:19.489Z,0.10
2018-03-01T22:14:47.753Z,0.30
2018-03-01T22:17:16.049Z,0.20
2018-03-01T22:19:44.374Z,0.00
2018-03-01T22:22:12.692Z,-0.20
2018-03-01T22:24:40.966Z,0.20
2018-03-01T22:27:09.341Z,0.00
2018-03-01T22:29:37.623Z,-0.10
2018-03-01T22:32:06.121Z,-0.30
2018-03-01T22:34:34.382Z,0.00
2018-03-01T22:37:02.644Z,0.00
2018-03-01T22:39:32.592Z,-0.20
2018-03-01T22:42:01.419Z,-0.10
2018-03-01T22:44:31.167Z,0.00
2018-03-01T22:46:59.414Z,-0.20
2018-03-01T22:49:28.548Z,0.10
2018-03-01T22:51:56.794Z,0.00
2018-03-01T22:54:25.890Z,0.10
2018-03-01T22:56:54.197Z,-0.20
2018-03-01T22:59:22.479Z,0.00
2018-03-01T23:01:51.553Z,0.00
2018-03-01T23:04:20.052Z,-0.20
2018-03-01T23:06:48.323Z,0.00
2018-03-01T23:09:16.577Z,-0.10
2018-03-01T23:11:44.859Z,-0.10
2018-03-01T23:14:13.204Z,-0.40
2018-03-01T23:16:41.494Z,-0.50
2018-03-01T23:19:10.542Z,0.00
2018-03-01T23:21:38.804Z,-0.30
2018-03-01T23:24:07.077Z,-0.30
2018-03-01T23:26:35.361Z,-0.30
2018-03-01T23:29:03.602Z,0.00
2018-03-01T23:31:31.861Z,-0.20
2018-03-01T23:34:00.162Z,-0.40
2018-03-01T23:36:28.423Z,-0.50
2018-03-01T23:38:56.759Z,-0.50
2018-03-01T23:41:25.074Z,-0.70
2018-03-01T23:43:53.321Z,-0.40
2018-03-01T23:46:23.193Z,-0.50
2018-03-01T23:48:51.461Z,-0.40
2018-03-01T23:51:19.766Z,-0.80
2018-03-01T23:53:48.065Z,-0.80
2018-03-01T23:56:16.345Z,-1.00
2018-03-01T23:58:44.616Z,-1.10
